Time;durP1;ratioP1;P1;durP2;ratioP2;P2;SDS_P1;SDS_P2;PMS_P1;PMS_P2;Temp;Humidity;BMP_temperature;BMP_pressure;BME280_temperature;BME280_humidity;BME280_pressure;Samples;Min_cycle;Max_cycle;Signal;HPM_P1;HPM_P2
2021/04/17 00:00:19;0.00;0.00;0.62;0.00;0.00;0.62;;;;;12.40;1.00;;;;;;2253360;61;1465;-87
2021/04/17 00:02:46;25411.00;0.08;44.64;0.00;0.00;0.62;;;;;12.10;1.00;;;;;;2256643;61;1044;-87
2021/04/17 00:05:13;7669.00;0.03;13.91;0.00;0.00;0.62;;;;;12.20;1.00;;;;;;2253332;61;949;-87
2021/04/17 00:07:40;0.00;0.00;0.62;0.00;0.00;0.62;;;;;12.10;1.00;;;;;;2256709;61;1074;-87
2021/04/17 00:10:08;0.00;0.00;0.62;0.00;0.00;0.62;;;;;12.00;1.00;;;;;;2256607;61;1329;-87
2021/04/17 00:12:36;52297.00;0.17;91.16;0.00;0.00;0.62;;;;;12.10;1.00;;;;;;2256687;61;919;-88
2021/04/17 00:15:05;13540.00;0.05;24.08;0.00;0.00;0.62;;;;;12.40;1.00;;;;;;2256617;61;2002;-86
2021/04/17 00:17:31;0.00;0.00;0.62;0.00;0.00;0.62;;;;;12.20;1.00;;;;;;2252539;61;1107;-87
2021/04/17 00:19:58;0.00;0.00;0.62;0.00;0.00;0.62;;;;;12.10;1.00;;;;;;2253717;61;1322;-88
2021/04/17 00:22:24;0.00;0.00;0.62;0.00;0.00;0.62;;;;;12.50;1.00;;;;;;2250735;61;1027;-88
2021/04/17 00:24:51;0.00;0.00;0.62;0.00;0.00;0.62;;;;;12.60;1.00;;;;;;2253964;61;966;-87
2021/04/17 00:27:19;0.00;0.00;0.62;0.00;0.00;0.62;;;;;11.80;1.00;;;;;;2254001;61;1063;-87
2021/04/17 00:29:46;150376.00;0.50;260.46;8621.00;0.03;15.56;;;;;11.40;1.00;;;;;;2256524;61;967;-87
2021/04/17 00:32:12;62872.00;0.21;109.44;0.00;0.00;0.62;;;;;11.50;1.00;;;;;;2253099;61;1448;-87
2021/04/17 00:34:39;127969.00;0.43;221.83;0.00;0.00;0.62;;;;;11.80;1.00;;;;;;2253666;61;1060;-88
2021/04/17 00:37:05;0.00;0.00;0.62;0.00;0.00;0.62;;;;;12.00;1.00;;;;;;2253879;61;2025;-86
2021/04/17 00:39:32;0.00;0.00;0.62;0.00;0.00;0.62;;;;;12.20;1.00;;;;;;2260152;61;1072;-87
2021/04/17 00:41:58;421819.00;1.41;727.32;133005.00;0.44;230.51;;;;;12.40;1.00;;;;;;2256457;61;1446;-88
2021/04/17 00:44:24;114985.00;0.38;199.43;0.00;0.00;0.62;;;;;12.70;1.00;;;;;;2256583;61;1035;-87
2021/04/17 00:46:52;66798.00;0.22;116.23;0.00;0.00;0.62;;;;;12.70;1.00;;;;;;2250710;61;974;-88
2021/04/17 00:49:18;48792.00;0.16;85.10;0.00;0.00;0.62;;;;;12.90;1.00;;;;;;2257876;61;950;-87
2021/04/17 00:51:45;102818.00;0.34;178.44;36232.00;0.12;63.37;;;;;12.90;1.00;;;;;;2260391;61;1463;-88
2021/04/17 00:54:12;0.00;0.00;0.62;0.00;0.00;0.62;;;;;12.60;1.00;;;;;;2253847;61;1001;-87
2021/04/17 00:56:38;57583.00;0.19;100.30;0.00;0.00;0.62;;;;;12.40;1.00;;;;;;2257068;61;2013;-88
2021/04/17 00:59:06;0.00;0.00;0.62;0.00;0.00;0.62;;;;;12.40;1.00;;;;;;2260042;61;1096;-88
2021/04/17 01:01:32;101726.00;0.34;176.55;11149.00;0.04;19.94;;;;;12.30;1.00;;;;;;2256528;61;1460;-88
2021/04/17 01:04:08;0.00;0.00;0.62;0.00;0.00;0.62;;;;;12.20;1.00;;;;;;2256572;61;1040;-87
2021/04/17 01:06:40;24723.00;0.08;43.45;0.00;0.00;0.62;;;;;11.90;1.00;;;;;;2252450;61;993;-87
2021/04/17 01:09:13;46809.00;0.16;81.67;0.00;0.00;0.62;;;;;11.90;1.00;;;;;;2249254;61;969;-87
2021/04/17 01:11:46;51501.00;0.17;89.78;0.00;0.00;0.62;;;;;11.40;1.00;;;;;;2249070;61;1394;-86
2021/04/17 01:14:15;57827.00;0.19;100.72;0.00;0.00;0.62;;;;;11.10;1.00;;;;;;2249055;61;995;-85
2021/04/17 01:16:42;95744.00;0.32;166.22;0.00;0.00;0.62;;;;;11.10;1.00;;;;;;2248377;61;1928;-86
2021/04/17 01:19:12;14690.00;0.05;26.07;0.00;0.00;0.62;;;;;10.50;1.00;;;;;;2248501;61;1021;-85
2021/04/17 01:21:42;77818.00;0.26;135.27;0.00;0.00;0.62;;;;;10.60;1.00;;;;;;2240439;61;1488;-85
2021/04/17 01:24:16;0.00;0.00;0.62;0.00;0.00;0.62;;;;;11.00;1.00;;;;;;2244359;61;960;-85
2021/04/17 01:26:44;0.00;0.00;0.62;0.00;0.00;0.62;;;;;11.50;1.00;;;;;;2243061;61;1002;-86
2021/04/17 01:29:11;0.00;0.00;0.62;0.00;0.00;0.62;;;;;12.10;1.00;;;;;;2248450;62;1079;-85
2021/04/17 01:31:40;0.00;0.00;0.62;0.00;0.00;0.62;;;;;12.10;1.00;;;;;;2248451;61;1350;-86
2021/04/17 01:34:08;0.00;0.00;0.62;0.00;0.00;0.62;;;;;12.10;1.00;;;;;;2250303;61;1122;-86
2021/04/17 01:36:38;0.00;0.00;0.62;0.00;0.00;0.62;;;;;12.10;1.00;;;;;;2253044;61;1924;-86
2021/04/17 01:39:08;44774.00;0.15;78.15;0.00;0.00;0.62;;;;;12.10;1.00;;;;;;2258308;61;1018;-87
2021/04/17 01:41:39;31433.00;0.10;55.06;0.00;0.00;0.62;;;;;12.20;1.00;;;;;;2268265;61;1480;-87
2021/04/17 01:44:11;0.00;0.00;0.62;0.00;0.00;0.62;;;;;12.40;1.00;;;;;;2265053;61;993;-86
2021/04/17 01:46:44;90082.00;0.30;156.45;0.00;0.00;0.62;;;;;12.30;1.00;;;;;;2268448;61;1083;-86
2021/04/17 01:49:14;0.00;0.00;0.62;0.00;0.00;0.62;;;;;12.30;1.00;;;;;;2264247;61;976;-87
2021/04/17 01:51:43;0.00;0.00;0.62;0.00;0.00;0.62;;;;;12.10;1.00;;;;;;2264341;61;1346;-87
2021/04/17 01:54:17;0.00;0.00;0.62;0.00;0.00;0.62;;;;;12.30;1.00;;;;;;2257705;61;957;-87
2021/04/17 01:56:49;0.00;0.00;0.62;0.00;0.00;0.62;;;;;12.50;1.00;;;;;;2257520;61;2002;-86
2021/04/17 01:59:19;0.00;0.00;0.62;0.00;0.00;0.62;;;;;12.20;1.00;;;;;;2257657;61;1003;-88
2021/04/17 02:01:46;20133.00;0.07;35.50;0.00;0.00;0.62;;;;;12.30;1.00;;;;;;2264292;61;1326;-86
2021/04/17 02:04:12;0.00;0.00;0.62;0.00;0.00;0.62;;;;;12.40;1.00;;;;;;2257665;61;1028;-86
2021/04/17 02:06:39;9543.00;0.03;17.16;0.00;0.00;0.62;;;;;12.50;1.00;;;;;;2258746;61;969;-86
2021/04/17 02:09:06;0.00;0.00;0.62;0.00;0.00;0.62;;;;;12.40;1.00;;;;;;2261723;61;1002;-88
2021/04/17 02:11:32;62615.00;0.21;109.00;0.00;0.00;0.62;;;;;11.90;1.00;;;;;;2268679;61;1336;-87
2021/04/17 02:14:01;0.00;0.00;0.62;0.00;0.00;0.62;;;;;11.60;1.00;;;;;;2268784;61;954;-87
2021/04/17 02:16:35;40253.00;0.13;70.33;0.00;0.00;0.62;;;;;11.50;1.00;;;;;;2261680;61;1911;-87
2021/04/17 02:19:05;0.00;0.00;0.62;0.00;0.00;0.62;;;;;11.80;1.00;;;;;;2261703;61;1014;-88
2021/04/17 02:21:35;49073.00;0.16;85.58;0.00;0.00;0.62;;;;;12.20;1.00;;;;;;2268664;61;1345;-86
2021/04/17 02:24:03;37377.00;0.12;65.35;0.00;0.00;0.62;;;;;12.20;1.00;;;;;;2264975;61;997;-88
2021/04/17 02:26:30;17162.00;0.06;30.36;0.00;0.00;0.62;;;;;12.20;1.00;;;;;;2261653;61;957;-87
2021/04/17 02:28:57;0.00;0.00;0.62;0.00;0.00;0.62;;;;;11.70;1.00;;;;;;2256199;61;990;-87
2021/04/17 02:31:24;9965.00;0.03;17.89;0.00;0.00;0.62;;;;;11.80;1.00;;;;;;2256221;61;1458;-87
2021/04/17 02:33:52;240.00;0.00;1.04;0.00;0.00;0.62;;;;;12.00;1.00;;;;;;2252836;61;1119;-86
2021/04/17 02:36:18;0.00;0.00;0.62;0.00;0.00;0.62;;;;;12.10;1.00;;;;;;2252096;61;2013;-87
2021/04/17 02:38:45;122811.00;0.41;212.93;56129.00;0.19;97.78;;;;;12.10;1.00;;;;;;2252198;61;1030;-87
2021/04/17 02:41:13;52710.00;0.18;91.87;0.00;0.00;0.62;;;;;12.30;1.00;;;;;;2252169;61;1404;-86
2021/04/17 02:43:39;82210.00;0.27;142.85;8351.00;0.03;15.09;;;;;12.30;1.00;;;;;;2248844;61;979;-87
2021/04/17 02:46:06;42718.00;0.14;74.59;0.00;0.00;0.62;;;;;11.90;1.00;;;;;;2253803;61;1139;-86
2021/04/17 02:48:32;26776.00;0.09;47.00;0.00;0.00;0.62;;;;;11.50;1.00;;;;;;2264211;61;1006;-86
2021/04/17 02:51:00;0.00;0.00;0.62;0.00;0.00;0.62;;;;;11.70;1.00;;;;;;2264114;61;1385;-87
2021/04/17 02:53:27;5411.00;0.02;10.00;0.00;0.00;0.62;;;;;11.70;1.00;;;;;;2264662;61;1079;-86
2021/04/17 02:55:54;18291.00;0.06;32.31;0.00;0.00;0.62;;;;;11.50;1.00;;;;;;2260050;61;2003;-87
2021/04/17 02:58:20;100517.00;0.34;174.46;12699.00;0.04;22.62;;;;;11.00;1.00;;;;;;2260149;61;1184;-87
2021/04/17 03:00:46;12475.00;0.04;22.24;0.00;0.00;0.62;;;;;11.20;1.00;;;;;;2260085;61;1460;-86
2021/04/17 03:03:13;0.00;0.00;0.62;0.00;0.00;0.62;;;;;11.00;1.00;;;;;;2260098;61;1111;-87
2021/04/17 03:05:40;110693.00;0.37;192.03;0.00;0.00;0.62;;;;;10.80;1.00;;;;;;2260081;61;1067;-87
2021/04/17 03:08:08;20425.00;0.07;36.01;0.00;0.00;0.62;;;;;11.00;1.00;;;;;;2256718;61;1046;-86
2021/04/17 03:10:35;151320.00;0.50;262.08;13392.00;0.04;23.83;;;;;10.90;1.00;;;;;;2256675;61;1327;-87
2021/04/17 03:13:01;8404.00;0.03;15.18;0.00;0.00;0.62;;;;;10.50;1.00;;;;;;2257758;61;976;-86
2021/04/17 03:15:28;114440.00;0.38;198.49;10182.00;0.03;18.26;;;;;9.80;1.00;;;;;;2258245;61;1996;-86
2021/04/17 03:17:56;6744.00;0.02;12.31;0.00;0.00;0.62;;;;;9.40;1.00;;;;;;2261499;61;944;-87
2021/04/17 03:20:22;10443.00;0.03;18.72;0.00;0.00;0.62;;;;;9.00;1.00;;;;;;2268544;61;1435;-86
2021/04/17 03:22:49;8783.00;0.03;15.84;0.00;0.00;0.62;;;;;9.10;1.00;;;;;;2256007;61;1026;-86
2021/04/17 03:27:47;23726.00;0.08;41.72;0.00;0.00;0.62;;;;;10.10;1.00;;;;;;2266340;61;1411;-86
2021/04/17 03:30:16;9652.00;0.03;17.35;0.00;0.00;0.62;;;;;10.90;1.00;;;;;;2260743;61;1377;-88
2021/04/17 03:32:43;31186.00;0.10;54.64;0.00;0.00;0.62;;;;;10.40;1.00;;;;;;2257449;61;1022;-87
2021/04/17 03:35:13;16932.00;0.06;29.96;0.00;0.00;0.62;;;;;9.30;1.00;;;;;;2264488;61;1922;-88
2021/04/17 03:37:41;84255.00;0.28;146.39;17262.00;0.06;30.53;;;;;8.80;1.00;;;;;;2265236;61;924;-86
2021/04/17 03:40:09;0.00;0.00;0.62;0.00;0.00;0.62;;;;;9.10;1.00;;;;;;2261428;61;1354;-85
2021/04/17 03:42:36;81026.00;0.27;140.81;0.00;0.00;0.62;;;;;9.40;1.00;;;;;;2261423;61;1147;-86
2021/04/17 03:45:05;121944.00;0.41;211.44;0.00;0.00;0.62;;;;;9.20;1.00;;;;;;2261447;61;995;-87
2021/04/17 03:47:31;95736.00;0.32;166.21;0.00;0.00;0.62;;;;;9.10;1.00;;;;;;2260610;61;1077;-87
2021/04/17 03:49:58;26065.00;0.09;45.77;0.00;0.00;0.62;;;;;9.00;1.00;;;;;;2260716;61;1420;-88
2021/04/17 03:52:24;0.00;0.00;0.62;0.00;0.00;0.62;;;;;9.10;1.00;;;;;;2250787;61;1053;-87
2021/04/17 03:54:50;94437.00;0.31;163.97;0.00;0.00;0.62;;;;;9.00;1.00;;;;;;2260736;61;1038;-88
2021/04/17 03:57:17;45660.00;0.15;79.68;0.00;0.00;0.62;;;;;8.50;1.00;;;;;;2257342;61;1936;-88
2021/04/17 03:59:45;93452.00;0.31;162.27;0.00;0.00;0.62;;;;;8.30;1.00;;;;;;2260009;61;1048;-88
2021/04/17 04:02:12;105764.00;0.35;183.52;0.00;0.00;0.62;;;;;7.80;1.00;;;;;;2260691;61;1341;-88
2021/04/17 04:04:39;32699.00;0.11;57.25;0.00;0.00;0.62;;;;;7.80;1.00;;;;;;2261227;61;1035;-88
2021/04/17 04:07:06;39323.00;0.13;68.72;0.00;0.00;0.62;;;;;7.90;1.00;;;;;;2264960;61;1019;-88
2021/04/17 04:09:32;23757.00;0.08;41.78;0.00;0.00;0.62;;;;;8.00;1.00;;;;;;2260628;61;958;-86
2021/04/17 04:11:59;124885.00;0.42;216.51;0.00;0.00;0.62;;;;;8.50;1.00;;;;;;2250844;61;1480;-87
2021/04/17 04:14:26;84715.00;0.28;147.18;0.00;0.00;0.62;;;;;8.50;1.00;;;;;;2254105;61;954;-87
2021/04/17 04:16:52;58346.00;0.19;101.62;0.00;0.00;0.62;;;;;8.40;1.00;;;;;;2253938;61;2011;-88
2021/04/17 04:19:20;33779.00;0.11;59.12;0.00;0.00;0.62;;;;;8.80;1.00;;;;;;2254002;61;1003;-85
2021/04/17 04:21:47;0.00;0.00;0.62;0.00;0.00;0.62;;;;;9.50;1.00;;;;;;2260622;61;1336;-88
2021/04/17 04:24:13;9357.00;0.03;16.84;0.00;0.00;0.62;;;;;10.40;1.00;;;;;;2254054;61;953;-86
2021/04/17 04:26:40;0.00;0.00;0.62;0.00;0.00;0.62;;;;;10.80;1.00;;;;;;2251133;61;1003;-87
2021/04/17 04:29:07;54047.00;0.18;94.18;0.00;0.00;0.62;;;;;11.20;1.00;;;;;;2261370;61;962;-87
2021/04/17 04:31:33;1482.00;0.00;3.19;0.00;0.00;0.62;;;;;11.60;1.00;;;;;;2264995;61;1353;-86
2021/04/17 04:34:00;29793.00;0.10;52.22;0.00;0.00;0.62;;;;;11.80;1.00;;;;;;2261300;61;995;-87
2021/04/17 04:36:27;159786.00;0.53;276.67;38202.00;0.13;66.78;;;;;11.50;1.00;;;;;;2265005;61;1990;-87
2021/04/17 04:38:53;10402.00;0.03;18.65;0.00;0.00;0.62;;;;;11.10;1.00;;;;;;2261252;61;986;-87
2021/04/17 04:41:20;0.00;0.00;0.62;0.00;0.00;0.62;;;;;11.40;1.00;;;;;;2261277;61;1412;-86
2021/04/17 04:43:46;94979.00;0.32;164.90;0.00;0.00;0.62;;;;;11.50;1.00;;;;;;2260512;61;981;-87
2021/04/17 04:46:13;0.00;0.00;0.62;0.00;0.00;0.62;;;;;10.70;1.00;;;;;;2253901;61;1045;-87
2021/04/17 04:48:39;21831.00;0.07;38.44;0.00;0.00;0.62;;;;;10.10;1.00;;;;;;2260348;61;1011;-87
2021/04/17 04:51:06;0.00;0.00;0.62;0.00;0.00;0.62;;;;;10.60;1.00;;;;;;2250571;61;1306;-87
2021/04/17 04:53:33;0.00;0.00;0.62;0.00;0.00;0.62;;;;;10.20;1.00;;;;;;2260625;61;956;-87
2021/04/17 04:56:00;90685.00;0.30;157.49;435.00;0.00;1.37;;;;;9.70;1.00;;;;;;2260469;61;2008;-86
2021/04/17 04:58:27;189072.00;0.63;327.11;13255.00;0.04;23.59;;;;;9.30;1.00;;;;;;2260531;61;1040;-86
2021/04/17 05:00:53;86550.00;0.29;150.35;0.00;0.00;0.62;;;;;8.70;1.00;;;;;;2261000;61;1366;-86
2021/04/17 05:03:20;19428.00;0.06;34.28;0.00;0.00;0.62;;;;;8.30;1.00;;;;;;2265047;61;976;-87
2021/04/17 05:05:46;45504.00;0.15;79.41;0.00;0.00;0.62;;;;;8.70;1.00;;;;;;2261268;61;1003;-86
2021/04/17 05:08:13;9574.00;0.03;17.21;0.00;0.00;0.62;;;;;8.70;1.00;;;;;;2264995;61;998;-87
2021/04/17 05:10:40;57005.00;0.19;99.30;0.00;0.00;0.62;;;;;8.90;1.00;;;;;;2261088;61;1387;-84
2021/04/17 05:13:06;0.00;0.00;0.62;0.00;0.00;0.62;;;;;9.20;1.00;;;;;;2264889;61;948;-87
2021/04/17 05:15:33;71144.00;0.24;123.74;0.00;0.00;0.62;;;;;9.30;1.00;;;;;;2264913;61;1985;-86
2021/04/17 05:17:59;145715.00;0.49;252.42;0.00;0.00;0.62;;;;;8.80;1.00;;;;;;2260347;61;1027;-87
2021/04/17 05:20:26;2079.00;0.01;4.22;0.00;0.00;0.62;;;;;8.50;1.00;;;;;;2260416;61;1314;-87
2021/04/17 05:22:52;57247.00;0.19;99.72;0.00;0.00;0.62;;;;;7.90;1.00;;;;;;2260429;61;1011;-86
2021/04/17 05:25:18;4849.00;0.02;9.02;0.00;0.00;0.62;;;;;7.50;1.00;;;;;;2250564;61;1044;-86
2021/04/17 05:27:46;25067.00;0.08;44.04;0.00;0.00;0.62;;;;;7.50;1.00;;;;;;2250587;61;1137;-87
2021/04/17 05:30:13;0.00;0.00;0.62;0.00;0.00;0.62;;;;;7.80;1.00;;;;;;2248378;61;1347;-87
2021/04/17 05:32:41;0.00;0.00;0.62;0.00;0.00;0.62;;;;;8.80;1.00;;;;;;2248349;61;1009;-86
2021/04/17 05:35:09;16712.00;0.06;29.58;0.00;0.00;0.62;;;;;9.20;1.00;;;;;;2249449;61;1031;-87
2021/04/17 05:37:35;0.00;0.00;0.62;0.00;0.00;0.62;;;;;8.40;1.00;;;;;;2256262;61;1942;-85
2021/04/17 05:40:02;0.00;0.00;0.62;0.00;0.00;0.62;;;;;8.90;1.00;;;;;;2253011;61;1418;-87
2021/04/17 05:42:28;78810.00;0.26;136.98;0.00;0.00;0.62;;;;;9.10;1.00;;;;;;2252942;61;1058;-87
2021/04/17 05:44:56;166384.00;0.55;288.04;26646.00;0.09;46.78;;;;;8.90;1.00;;;;;;2256339;61;966;-87
2021/04/17 05:47:22;14468.00;0.05;25.69;0.00;0.00;0.62;;;;;8.60;1.00;;;;;;2250788;61;977;-87
2021/04/17 05:49:50;26547.00;0.09;46.61;0.00;0.00;0.62;;;;;8.60;1.00;;;;;;2252291;61;967;-88
2021/04/17 05:52:18;25736.00;0.09;45.20;0.00;0.00;0.62;;;;;8.50;1.00;;;;;;2248900;61;1408;-86
2021/04/17 05:54:44;16863.00;0.06;29.84;0.00;0.00;0.62;;;;;8.90;1.00;;;;;;2248194;61;966;-85
2021/04/17 05:57:11;0.00;0.00;0.62;0.00;0.00;0.62;;;;;9.80;1.00;;;;;;2244967;61;1920;-88
2021/04/17 05:59:37;11073.00;0.04;19.81;0.00;0.00;0.62;;;;;10.00;1.00;;;;;;2241680;61;1024;-87
2021/04/17 06:02:06;178677.00;0.60;309.21;0.00;0.00;0.62;;;;;9.60;1.00;;;;;;2240335;62;1276;-86
2021/04/17 06:04:35;33567.00;0.11;58.76;0.00;0.00;0.62;;;;;8.80;1.00;;;;;;2237168;62;981;-87
2021/04/17 06:07:01;6069.00;0.02;11.14;0.00;0.00;0.62;;;;;8.70;1.00;;;;;;2242206;61;1024;-87
2021/04/17 06:09:28;49407.00;0.16;86.16;0.00;0.00;0.62;;;;;8.70;1.00;;;;;;2252197;61;1015;-86
2021/04/17 06:11:57;159673.00;0.53;276.48;47057.00;0.16;82.10;;;;;8.80;1.00;;;;;;2252579;61;1478;-88
2021/04/17 06:14:25;111061.00;0.37;192.66;0.00;0.00;0.62;;;;;8.50;1.00;;;;;;2256104;61;974;-85
2021/04/17 06:16:51;8038.00;0.03;14.55;0.00;0.00;0.62;;;;;8.50;1.00;;;;;;2256164;61;1999;-87
2021/04/17 06:19:19;27149.00;0.09;47.65;0.00;0.00;0.62;;;;;8.40;1.00;;;;;;2257567;61;1008;-88
2021/04/17 06:21:45;33330.00;0.11;58.35;0.00;0.00;0.62;;;;;8.30;1.00;;;;;;2260950;61;1376;-88
2021/04/17 06:24:13;21310.00;0.07;37.54;0.00;0.00;0.62;;;;;8.20;1.00;;;;;;2260974;61;951;-87
2021/04/17 06:26:39;130907.00;0.44;226.89;0.00;0.00;0.62;;;;;8.20;1.00;;;;;;2260974;61;1098;-87
2021/04/17 06:29:06;0.00;0.00;0.62;0.00;0.00;0.62;;;;;8.10;1.00;;;;;;2260991;61;960;-87
2021/04/17 06:31:32;95758.00;0.32;166.25;0.00;0.00;0.62;;;;;7.80;1.00;;;;;;2256103;61;1428;-86
2021/04/17 06:33:59;8043.00;0.03;14.56;0.00;0.00;0.62;;;;;7.80;1.00;;;;;;2252098;61;1060;-88
2021/04/17 06:36:26;16941.00;0.06;29.97;0.00;0.00;0.62;;;;;7.80;1.00;;;;;;2248717;61;2001;-87
2021/04/17 06:38:52;0.00;0.00;0.62;0.00;0.00;0.62;;;;;8.00;1.00;;;;;;2245545;61;1041;-88
2021/04/17 06:41:22;42744.00;0.14;74.64;0.00;0.00;0.62;;;;;7.90;1.00;;;;;;2245579;61;1348;-88
2021/04/17 06:43:50;103676.00;0.35;179.92;0.00;0.00;0.62;;;;;8.50;1.00;;;;;;2248045;61;1093;-87
2021/04/17 06:46:19;8375.00;0.03;15.13;0.00;0.00;0.62;;;;;8.40;1.00;;;;;;2244829;61;1010;-87
2021/04/17 06:48:47;54277.00;0.18;94.58;0.00;0.00;0.62;;;;;8.30;1.00;;;;;;2249431;61;1040;-88
2021/04/17 06:51:16;33251.00;0.11;58.21;0.00;0.00;0.62;;;;;8.50;1.00;;;;;;2256713;61;1373;-84
2021/04/17 06:53:44;77629.00;0.26;134.94;0.00;0.00;0.62;;;;;8.90;1.00;;;;;;2256781;61;1072;-88
2021/04/17 06:56:12;126169.00;0.42;218.72;39943.00;0.13;69.79;;;;;9.00;1.00;;;;;;2260113;61;2002;-87
2021/04/17 06:58:40;10930.00;0.04;19.56;0.00;0.00;0.62;;;;;9.10;1.00;;;;;;2256741;61;977;-88
2021/04/17 07:01:07;8390.00;0.03;15.16;0.00;0.00;0.62;;;;;9.20;1.00;;;;;;2260929;61;1352;-87
2021/04/17 07:03:33;47047.00;0.16;82.08;0.00;0.00;0.62;;;;;9.30;1.00;;;;;;2260046;61;980;-87
2021/04/17 07:06:00;14929.00;0.05;26.49;0.00;0.00;0.62;;;;;8.80;1.00;;;;;;2260021;61;990;-88
2021/04/17 07:08:28;0.00;0.00;0.62;0.00;0.00;0.62;;;;;8.40;1.00;;;;;;2260102;61;1012;-87
2021/04/17 07:10:57;0.00;0.00;0.62;0.00;0.00;0.62;;;;;8.30;1.00;;;;;;2256521;61;1322;-86
2021/04/17 07:13:25;66625.00;0.22;115.93;0.00;0.00;0.62;;;;;8.70;1.00;;;;;;2260112;61;917;-87
2021/04/17 07:15:52;73254.00;0.24;127.38;0.00;0.00;0.62;;;;;8.70;1.00;;;;;;2260015;61;1916;-88
2021/04/17 07:18:32;12368.00;0.04;22.05;0.00;0.00;0.62;;;;;9.00;1.00;;;;;;2260033;61;1002;-89
2021/04/17 07:21:00;48152.00;0.16;83.99;0.00;0.00;0.62;;;;;9.20;1.00;;;;;;2248972;61;1314;-87
2021/04/17 07:23:39;0.00;0.00;0.62;0.00;0.00;0.62;;;;;9.30;1.00;;;;;;2251992;61;1153;-88
2021/04/17 07:26:13;12704.00;0.04;22.63;0.00;0.00;0.62;;;;;9.40;1.00;;;;;;2252063;61;1029;-87
2021/04/17 07:28:42;43474.00;0.14;75.90;0.00;0.00;0.62;;;;;9.40;1.00;;;;;;2252030;61;1025;-88
2021/04/17 07:31:16;47674.00;0.16;83.16;0.00;0.00;0.62;;;;;9.40;1.00;;;;;;2252009;61;1359;-87
2021/04/17 07:33:42;36418.00;0.12;63.69;0.00;0.00;0.62;;;;;9.40;1.00;;;;;;2252069;61;1168;-87
2021/04/17 07:36:09;52095.00;0.17;90.81;0.00;0.00;0.62;;;;;9.60;1.00;;;;;;2251900;61;2003;-85
2021/04/17 07:38:38;69240.00;0.23;120.45;0.00;0.00;0.62;;;;;10.20;1.00;;;;;;2256314;61;1026;-88
2021/04/17 07:41:08;91916.00;0.31;159.62;0.00;0.00;0.62;;;;;10.10;1.00;;;;;;2257421;61;1444;-86
2021/04/17 07:43:47;37302.00;0.12;65.22;0.00;0.00;0.62;;;;;10.30;1.00;;;;;;2255789;61;1380;-85
2021/04/17 07:46:15;0.00;0.00;0.62;0.00;0.00;0.62;;;;;10.90;1.00;;;;;;2255363;61;1036;-88
2021/04/17 07:48:43;0.00;0.00;0.62;0.00;0.00;0.62;;;;;11.40;1.00;;;;;;2255557;61;1088;-89
2021/04/17 07:51:10;746.00;0.00;1.91;0.00;0.00;0.62;;;;;12.00;1.00;;;;;;2255917;61;1431;-88
2021/04/17 07:53:38;17862.00;0.06;31.57;0.00;0.00;0.62;;;;;11.50;1.00;;;;;;2243922;62;932;-89
2021/04/17 07:56:26;32023.00;0.11;56.08;0.00;0.00;0.62;;;;;11.90;1.00;;;;;;2243894;61;1927;-90
2021/04/17 07:58:57;0.00;0.00;0.62;0.00;0.00;0.62;;;;;12.40;1.00;;;;;;2243947;61;1056;-89
2021/04/17 08:01:25;26808.00;0.09;47.06;0.00;0.00;0.62;;;;;13.00;1.00;;;;;;2247167;61;1425;-90
2021/04/17 08:03:56;204377.00;0.68;353.46;0.00;0.00;0.62;;;;;13.70;1.00;;;;;;2251779;61;1020;-89
2021/04/17 08:06:23;1415.00;0.00;3.07;0.00;0.00;0.62;;;;;15.20;1.00;;;;;;2251888;61;1365;-90
2021/04/17 08:08:51;374.00;0.00;1.27;0.00;0.00;0.62;;;;;15.80;1.00;;;;;;2251374;61;1119;-89
2021/04/17 08:11:20;263976.00;0.88;455.99;51814.00;0.17;90.32;;;;;15.60;1.00;;;;;;2254544;61;1423;-90
2021/04/17 08:13:47;3796.00;0.01;7.20;0.00;0.00;0.62;;;;;16.10;1.00;;;;;;2261527;61;1042;-89
2021/04/17 08:16:16;20035.00;0.07;35.33;0.00;0.00;0.62;;;;;15.70;1.00;;;;;;2260521;61;1994;-89
2021/04/17 08:18:43;55491.00;0.18;96.68;0.00;0.00;0.62;;;;;15.60;1.00;;;;;;2263691;61;1148;-89
2021/04/17 08:21:11;182014.00;0.61;314.96;0.00;0.00;0.62;;;;;15.40;1.00;;;;;;2264300;61;1272;-90
2021/04/17 08:23:38;43537.00;0.15;76.01;0.00;0.00;0.62;;;;;15.30;1.00;;;;;;2261187;61;1093;-89
2021/04/17 08:26:07;78777.00;0.26;136.92;9470.00;0.03;17.03;;;;;14.80;1.00;;;;;;2260353;61;954;-89
2021/04/17 08:28:40;101158.00;0.34;175.57;0.00;0.00;0.62;;;;;14.40;1.00;;;;;;2260523;61;1021;-88
2021/04/17 08:31:30;31187.00;0.10;54.64;0.00;0.00;0.62;;;;;14.50;1.00;;;;;;2260524;61;1352;-89
2021/04/17 08:34:14;35994.00;0.12;62.96;0.00;0.00;0.62;;;;;14.80;1.00;;;;;;2250648;61;997;-89
2021/04/17 08:36:42;168818.00;0.56;292.23;85739.00;0.29;148.95;;;;;15.10;1.00;;;;;;2260458;61;1991;-89
2021/04/17 08:39:43;141099.00;0.47;244.47;22858.00;0.08;40.22;;;;;14.90;1.00;;;;;;2260274;61;1066;-89
2021/04/17 08:42:15;39807.00;0.13;69.55;0.00;0.00;0.62;;;;;14.60;1.00;;;;;;2260529;61;1420;-89
2021/04/17 08:44:42;34278.00;0.11;59.99;0.00;0.00;0.62;;;;;15.50;1.00;;;;;;2263903;61;1061;-90
2021/04/17 08:47:11;114835.00;0.38;199.17;14162.00;0.05;25.16;;;;;15.70;1.00;;;;;;2264999;61;1029;-90
2021/04/17 08:49:41;6894.00;0.02;12.57;0.00;0.00;0.62;;;;;16.00;1.00;;;;;;2264868;61;1125;-90
2021/04/17 08:52:20;2150.00;0.01;4.35;0.00;0.00;0.62;;;;;15.90;1.00;;;;;;2264986;61;1340;-91
2021/04/17 08:55:03;41458.00;0.14;72.41;0.00;0.00;0.62;;;;;15.20;1.00;;;;;;2260438;61;945;-90
2021/04/17 08:57:30;152496.00;0.51;264.11;0.00;0.00;0.62;;;;;15.10;1.00;;;;;;2244500;61;1997;-89
2021/04/17 08:59:57;76036.00;0.25;132.19;0.00;0.00;0.62;;;;;14.70;1.00;;;;;;2244534;61;1303;-89
2021/04/17 09:02:26;9142.00;0.03;16.46;0.00;0.00;0.62;;;;;14.70;1.00;;;;;;2244471;61;1114;-89
2021/04/17 09:05:01;114425.00;0.38;198.46;0.00;0.00;0.62;;;;;14.80;1.00;;;;;;2241085;61;997;-90
2021/04/17 09:07:30;139257.00;0.46;241.29;0.00;0.00;0.62;;;;;14.00;1.00;;;;;;2241161;61;1060;-88
2021/04/17 09:10:34;102703.00;0.34;178.24;0.00;0.00;0.62;;;;;13.80;1.00;;;;;;2241020;61;1407;-90
2021/04/17 09:13:31;0.00;0.00;0.62;0.00;0.00;0.62;;;;;14.60;1.00;;;;;;2238826;61;1050;-90
2021/04/17 09:15:59;0.00;0.00;0.62;0.00;0.00;0.62;;;;;15.30;1.00;;;;;;2240501;61;1973;-90
2021/04/17 09:18:43;55211.00;0.18;96.20;0.00;0.00;0.62;;;;;14.80;1.00;;;;;;2236450;62;1095;-90
2021/04/17 09:21:42;45247.00;0.15;78.97;0.00;0.00;0.62;;;;;15.10;1.00;;;;;;2236440;62;1326;-85
2021/04/17 09:24:28;1807.00;0.01;3.75;0.00;0.00;0.62;;;;;14.30;1.00;;;;;;2224742;62;1000;-87
2021/04/17 09:26:56;178763.00;0.60;309.36;84712.00;0.28;147.18;;;;;13.30;1.00;;;;;;2224846;62;1030;-86
2021/04/17 09:29:27;63863.00;0.21;111.15;0.00;0.00;0.62;;;;;13.40;1.00;;;;;;2224774;62;1107;-89
2021/04/17 09:31:58;24367.00;0.08;42.83;0.00;0.00;0.62;;;;;14.00;1.00;;;;;;2224791;62;1413;-88
2021/04/17 09:34:25;28897.00;0.10;50.67;0.00;0.00;0.62;;;;;14.50;1.00;;;;;;2228017;62;1020;-89
2021/04/17 09:36:51;103697.00;0.35;179.95;22931.00;0.08;40.35;;;;;14.70;1.00;;;;;;2226121;62;1925;-89
2021/04/17 09:39:24;76910.00;0.26;133.70;0.00;0.00;0.62;;;;;14.40;1.00;;;;;;2226130;62;973;-87
2021/04/17 09:41:53;141436.00;0.47;245.05;0.00;0.00;0.62;;;;;14.10;1.00;;;;;;2229980;62;1364;-88
2021/04/17 09:44:22;1054.00;0.00;2.45;0.00;0.00;0.62;;;;;14.20;1.00;;;;;;2226091;62;1022;-89
2021/04/17 09:47:05;10131.00;0.03;18.18;0.00;0.00;0.62;;;;;14.40;1.00;;;;;;2229326;62;993;-89
2021/04/17 09:49:36;9829.00;0.03;17.65;0.00;0.00;0.62;;;;;13.60;1.00;;;;;;2236811;61;1037;-86
2021/04/17 09:52:03;23045.00;0.08;40.54;0.00;0.00;0.62;;;;;13.30;1.00;;;;;;2240200;61;1385;-88
2021/04/17 09:54:30;0.00;0.00;0.62;0.00;0.00;0.62;;;;;13.80;1.00;;;;;;2244371;61;1069;-88
2021/04/17 09:56:57;7480.00;0.02;13.58;0.00;0.00;0.62;;;;;14.50;1.00;;;;;;2252176;61;1981;-88
2021/04/17 09:59:24;86759.00;0.29;150.71;0.00;0.00;0.62;;;;;15.40;1.00;;;;;;2254613;61;1034;-88
2021/04/17 10:01:52;56382.00;0.19;98.22;0.00;0.00;0.62;;;;;15.30;1.00;;;;;;2260087;61;1500;-88
2021/04/17 10:04:20;39584.00;0.13;69.17;0.00;0.00;0.62;;;;;14.10;1.00;;;;;;2260140;61;1116;-89
2021/04/17 10:06:55;0.00;0.00;0.62;0.00;0.00;0.62;;;;;12.90;1.00;;;;;;2256852;61;970;-88
2021/04/17 10:09:23;49576.00;0.17;86.45;0.00;0.00;0.62;;;;;11.80;1.00;;;;;;2260818;61;955;-90
2021/04/17 10:12:04;102154.00;0.34;177.29;0.00;0.00;0.62;;;;;11.60;1.00;;;;;;2264057;61;1364;-88
2021/04/17 10:14:32;243780.00;0.81;421.25;34209.00;0.11;59.87;;;;;11.50;1.00;;;;;;2264120;61;1178;-89
2021/04/17 10:16:59;22916.00;0.08;40.32;0.00;0.00;0.62;;;;;11.70;1.00;;;;;;2257537;61;1923;-89
2021/04/17 10:19:28;499214.00;1.66;860.47;89754.00;0.30;155.88;;;;;11.40;1.00;;;;;;2256077;61;932;-90
2021/04/17 10:21:57;77358.00;0.26;134.47;0.00;0.00;0.62;;;;;11.30;1.00;;;;;;2256033;61;1410;-90
2021/04/17 10:24:26;0.00;0.00;0.62;0.00;0.00;0.62;;;;;11.60;1.00;;;;;;2248156;61;945;-90
2021/04/17 10:26:59;83124.00;0.28;144.43;0.00;0.00;0.62;;;;;11.50;1.00;;;;;;2241661;61;980;-88
2021/04/17 10:29:38;0.00;0.00;0.62;0.00;0.00;0.62;;;;;11.60;1.00;;;;;;2245480;61;995;-90